Kingdom City, MO (65262)

8:41 AM CDT on August 29, 2015 (GMT -0500)
YMCA | | Change Station
CLOSE
Current Station
Personal Weather Station
Location: Fulton, MO
Elevation: 853 ft
Nearby Weather Stations

Elev 853 ft 38.86 °N, 91.94 °W | Updated 1 minute ago

Overcast
Overcast
71.4 °F
Feels Like 71 °F
N
3.0
Wind Variable Wind from South
Gusts 5.0 mph

Today
High -- | Low -- °F
--% Chance of Precip.
Yesterday
High -- | Low -- °F
Precip. -- in
6:33 AM 7:43 PM
Full, 100% visible
Pressure 29.98 in
Visibility 10.0 miles
Clouds Overcast 10000 ft
Heat Index 71 °F
Dew Point 66 °F
Humidity 82%
Rainfall 0.00 in
Snow Depth Not available.
UV 0 out of 12
Pollen 7.50 out of 12
Air Quality Not available.
Flu Activity Not available.
METAR KCOU 291254Z 17006KT 10SM OVC100 20/18 A3000 RMK AO2 SLP152 T02000178
Pressure 29.98 in
Visibility 10.0 miles
Clouds Overcast 10000 ft
Heat Index 71 °F
Dew Point 66 °F
Humidity 82%
Rainfall 0.00 in
Snow Depth Not available.
UV 0 out of 12
Pollen 7.50 out of 12
Air Quality Not available.
Flu Activity Not available.
METAR KCOU 291254Z 17006KT 10SM OVC100 20/18 A3000 RMK AO2 SLP152 T02000178

10-Day Weather Forecast

×

Almanac

Astronomy

Aug. 29, 2015 Rise Set
Actual Time
Civil Twilight
Nautical Twilight
Astronomical Twilight
Moon
Length of Visible Light
Length of Day
Tomorrow will be .
, % of the Moon is Illuminated

Today's Extremes

State Highs State Lows

Community

WunderPhotos

Upload Photos

1,850,686 photos uploaded!

WunderBlogs® & News

Nearby

Air Quality

  Air Quality AQ Index Pollutant
Not available.

Snow Depth

Station Depth Elevation

Earthquake Activity

City Distance Mag. Time & Date
Minimum magnitude displayed is 2.5.

Coastal Water Temperatures

Place Temperature

Stations

Nearby Weather Stations

Station Location Temp. Windchill Dew Point Humidity Wind Precip. Elev Updated Type